createdAt,value
2023-05-07T01:33:37.792Z,56.14
2023-05-07T01:36:07.850Z,56.60
2023-05-07T01:38:37.791Z,56.37
2023-05-07T01:41:05.838Z,56.44
2023-05-07T01:43:34.682Z,56.29
2023-05-07T04:45:13.353Z,57.92
2023-05-07T04:47:41.021Z,57.99
2023-05-07T04:50:10.036Z,57.72
2023-05-07T04:52:37.841Z,57.73
2023-05-07T04:55:06.185Z,57.36
2023-05-07T04:57:33.888Z,57.19
2023-05-07T05:00:01.715Z,57.15
2023-05-07T05:02:30.967Z,56.84
2023-05-07T05:05:00.016Z,56.63
2023-05-07T05:07:27.668Z,56.36
2023-05-07T05:09:56.810Z,56.60
2023-05-07T05:12:24.536Z,56.12
2023-05-07T05:14:52.236Z,56.37
2023-05-07T05:17:19.873Z,56.47
2023-05-07T05:19:48.956Z,56.03
2023-05-07T05:22:16.876Z,56.13
2023-05-07T05:24:44.548Z,55.96
2023-05-07T05:27:12.255Z,55.72
2023-05-07T05:29:39.875Z,55.64
2023-05-07T05:32:07.736Z,55.07
2023-05-07T05:34:35.511Z,54.96
2023-05-07T05:37:04.716Z,54.53
2023-05-07T05:39:33.741Z,54.44
2023-05-07T05:42:01.447Z,53.94
2023-05-07T05:44:29.208Z,54.14
2023-05-07T05:46:58.668Z,53.72
2023-05-07T05:49:26.841Z,53.56
2023-05-07T05:51:54.579Z,52.22
2023-05-07T05:54:23.720Z,51.94
2023-05-07T05:56:51.552Z,51.31
2023-05-07T05:59:19.230Z,51.24
2023-05-07T06:01:47.189Z,51.37
2023-05-07T06:04:14.998Z,50.72
2023-05-07T06:06:43.917Z,50.24
2023-05-07T06:09:11.793Z,50.11
2023-05-07T06:11:45.259Z,50.04
2023-05-07T06:14:14.184Z,49.56
2023-05-07T06:16:49.122Z,49.70
2023-05-07T06:19:19.076Z,48.96
2023-05-07T06:21:48.816Z,48.45
2023-05-07T06:24:16.501Z,48.35
2023-05-07T06:26:45.569Z,48.14
2023-05-07T06:29:35.199Z,47.80
2023-05-07T06:32:14.969Z,47.23
2023-05-07T06:34:42.792Z,47.64
2023-05-07T06:37:10.414Z,47.66
2023-05-07T06:39:38.106Z,47.52
2023-05-07T06:42:19.885Z,47.69
2023-05-07T06:44:47.568Z,47.76
2023-05-07T06:47:16.663Z,47.67
2023-05-07T06:49:44.305Z,47.42
2023-05-07T06:52:11.884Z,47.56
2023-05-07T06:54:41.566Z,47.05
2023-05-07T06:57:10.679Z,47.11
2023-05-07T06:59:38.484Z,46.87
2023-05-07T07:02:06.348Z,47.23
2023-05-07T07:04:34.098Z,46.59
2023-05-07T07:07:01.907Z,46.27
2023-05-07T07:09:43.032Z,45.92
2023-05-07T07:12:12.028Z,45.77
2023-05-07T07:14:39.717Z,45.23
2023-05-07T07:17:07.353Z,45.24
2023-05-07T07:19:35.085Z,45.07
2023-05-07T07:22:02.741Z,44.29
2023-05-07T07:24:30.588Z,44.23
2023-05-07T07:26:58.718Z,43.79
2023-05-07T07:29:28.016Z,43.40
2023-05-07T07:31:55.811Z,42.74
2023-05-07T07:34:23.728Z,41.86
2023-05-07T07:36:51.317Z,41.53
2023-05-07T07:39:19.030Z,40.82
2023-05-07T07:41:47.737Z,40.67
2023-05-07T07:44:16.594Z,40.16
2023-05-07T07:46:45.876Z,39.32
2023-05-07T07:49:13.626Z,38.61
2023-05-07T07:51:41.248Z,38.82
2023-05-07T07:54:09.658Z,38.45
2023-05-07T07:56:37.505Z,38.15
2023-05-07T07:59:05.255Z,38.13
2023-05-07T08:01:36.369Z,36.27
2023-05-07T08:04:06.598Z,36.11
2023-05-07T08:06:34.545Z,36.66
2023-05-07T08:09:02.160Z,36.38
2023-05-07T08:11:30.376Z,36.04
2023-05-07T08:14:07.762Z,35.77
2023-05-07T08:16:35.431Z,35.69
2023-05-07T08:19:04.838Z,35.68
2023-05-07T08:21:34.630Z,35.55
2023-05-07T08:24:02.850Z,35.61
2023-05-07T08:26:30.938Z,35.42
2023-05-07T08:29:00.853Z,35.77
2023-05-07T08:31:28.549Z,35.52
2023-05-07T08:33:56.265Z,34.30
2023-05-07T08:38:53.182Z,34.91
2023-05-07T08:41:21.803Z,34.38
2023-05-07T08:43:50.739Z,34.08
2023-05-07T08:46:20.484Z,33.29
2023-05-07T08:48:49.992Z,33.78
2023-05-07T08:51:18.588Z,33.05
2023-05-07T08:53:49.390Z,31.85
2023-05-07T08:56:17.581Z,31.72
2023-05-07T09:01:49.292Z,30.39
2023-05-07T09:04:17.740Z,29.86
2023-05-07T09:06:45.551Z,30.07
2023-05-07T09:09:19.637Z,29.46
2023-05-07T09:11:47.552Z,29.72
2023-05-07T09:14:15.345Z,29.46
2023-05-07T09:16:43.099Z,29.85
2023-05-07T09:19:11.111Z,29.75
2023-05-07T09:21:38.733Z,30.39
2023-05-07T09:24:07.152Z,29.64
2023-05-07T09:26:36.263Z,29.52
2023-05-07T09:29:03.902Z,29.60
2023-05-07T09:31:31.672Z,29.16
2023-05-07T09:34:06.552Z,28.29
2023-05-07T09:36:34.185Z,27.53
2023-05-07T09:39:01.878Z,28.13
2023-05-07T09:41:59.528Z,27.37
2023-05-07T09:44:27.767Z,28.09
2023-05-07T09:46:56.089Z,27.19
2023-05-07T09:49:25.845Z,26.98
2023-05-07T09:51:54.091Z,27.14
2023-05-07T09:54:21.656Z,27.29
2023-05-07T09:56:49.906Z,28.05
2023-05-07T09:59:19.050Z,28.30
2023-05-07T10:01:46.642Z,28.31
2023-05-07T10:04:14.798Z,27.61
2023-05-07T10:06:42.687Z,27.56
2023-05-07T10:09:10.718Z,27.50
2023-05-07T10:11:38.430Z,26.30
2023-05-07T10:14:06.729Z,26.12
2023-05-07T10:16:37.397Z,27.42
2023-05-07T10:19:05.701Z,26.18
2023-05-07T10:21:33.601Z,26.32
2023-05-07T10:24:07.002Z,26.99
2023-05-07T10:26:35.188Z,27.55
2023-05-07T10:29:05.984Z,27.95
2023-05-07T10:31:50.853Z,28.15
2023-05-07T10:34:19.950Z,28.68
2023-05-07T10:36:47.597Z,29.51
2023-05-07T10:39:15.296Z,29.53
2023-05-07T11:04:13.332Z,21.27
2023-05-07T11:07:28.991Z,22.86
2023-05-07T11:10:26.299Z,24.52
2023-05-07T11:13:53.044Z,24.83
2023-05-07T11:23:52.851Z,27.29
2023-05-07T11:26:53.634Z,28.64
2023-05-07T11:33:05.628Z,30.50
2023-05-07T11:36:01.081Z,31.50
2023-05-07T11:38:57.336Z,32.45
2023-05-07T11:41:57.941Z,33.18
2023-05-07T11:45:03.352Z,34.10
2023-05-07T11:51:44.426Z,34.83
2023-05-07T11:59:38.695Z,35.51
2023-05-07T12:05:52.103Z,36.70
2023-05-07T12:08:48.210Z,36.74
2023-05-07T12:50:25.561Z,39.66
2023-05-07T13:41:40.861Z,39.95
2023-05-07T14:06:17.279Z,42.56
2023-05-07T14:09:41.032Z,42.79
2023-05-07T14:35:58.404Z,46.41
2023-05-07T14:39:37.876Z,46.90
2023-05-07T15:13:49.496Z,49.71
2023-05-07T15:20:14.555Z,49.77
2023-05-07T15:22:42.809Z,50.44
2023-05-07T15:25:16.939Z,50.73
2023-05-07T15:27:44.679Z,50.85
2023-05-07T15:30:15.935Z,51.06
2023-05-07T15:32:43.641Z,50.73
2023-05-07T15:35:11.715Z,51.08
2023-05-07T15:37:39.662Z,51.47
2023-05-07T15:40:09.249Z,51.23
2023-05-07T15:42:37.895Z,51.78
2023-05-07T15:45:09.074Z,51.71
2023-05-07T15:47:39.859Z,51.86
2023-05-07T15:50:11.891Z,52.37
2023-05-07T15:52:42.067Z,52.55
2023-05-07T15:55:13.767Z,53.01
2023-05-07T16:36:32.193Z,53.85
2023-05-07T16:39:56.934Z,53.36
2023-05-07T16:43:00.130Z,53.28
2023-05-07T16:50:53.117Z,53.86
2023-05-07T17:11:14.208Z,54.75
2023-05-07T17:13:45.495Z,55.34
2023-05-07T17:16:15.107Z,55.64
2023-05-07T17:18:43.877Z,55.61
2023-05-07T17:21:11.653Z,55.01
2023-05-07T17:23:39.433Z,55.51
2023-05-07T17:26:14.063Z,55.86
2023-05-07T17:28:42.163Z,55.28
2023-05-07T17:31:09.981Z,55.64
2023-05-07T17:33:37.925Z,55.68
2023-05-07T17:36:08.618Z,56.07
2023-05-07T17:38:37.661Z,56.53
2023-05-07T17:41:06.117Z,56.71
2023-05-07T17:43:35.255Z,56.59
2023-05-07T17:46:04.372Z,56.44
2023-05-07T17:48:32.094Z,56.61
2023-05-07T17:51:02.695Z,56.17
2023-05-07T17:53:30.656Z,56.52
2023-05-07T17:55:58.395Z,56.79
2023-05-07T17:58:27.363Z,56.42
2023-05-07T18:00:57.707Z,56.98
2023-05-07T18:03:25.552Z,57.30
2023-05-07T18:05:54.464Z,57.16
2023-05-07T18:08:24.869Z,57.37
2023-05-07T18:10:52.588Z,57.36
2023-05-07T18:16:24.388Z,57.49
2023-05-07T18:18:52.522Z,57.28
2023-05-07T18:21:20.545Z,56.96
2023-05-07T18:23:49.576Z,56.86
2023-05-07T18:26:17.767Z,56.90
2023-05-07T18:28:46.987Z,56.70
2023-05-07T18:31:14.882Z,56.33
2023-05-07T18:33:46.457Z,56.56
2023-05-07T18:36:14.512Z,56.41
2023-05-07T18:38:43.680Z,56.38
2023-05-07T18:41:11.636Z,56.35
2023-05-07T18:43:39.734Z,56.80
2023-05-07T18:46:07.937Z,57.04
2023-05-07T18:48:38.910Z,57.29
2023-05-07T18:51:12.565Z,57.37
2023-05-07T18:53:40.639Z,57.35
2023-05-07T18:56:08.870Z,57.31
2023-05-07T18:58:36.958Z,57.21
2023-05-07T19:54:52.174Z,59.17
2023-05-07T20:04:55.895Z,59.27
2023-05-07T20:11:29.153Z,59.14
2023-05-07T20:13:57.256Z,59.63
2023-05-07T21:24:44.892Z,60.01
2023-05-07T21:28:22.090Z,60.13
2023-05-07T22:47:18.643Z,60.98
2023-05-07T22:49:46.649Z,60.85
2023-05-07T22:52:14.494Z,61.04
2023-05-07T22:54:42.418Z,60.83
2023-05-07T22:57:10.158Z,60.90
2023-05-07T22:59:37.884Z,60.75
2023-05-07T23:02:07.131Z,61.01
2023-05-07T23:04:36.366Z,60.85
2023-05-07T23:07:04.104Z,61.28
2023-05-07T23:09:31.899Z,60.80
2023-05-07T23:11:59.955Z,61.16
2023-05-07T23:14:27.762Z,61.17
2023-05-07T23:16:55.610Z,61.05
2023-05-07T23:19:23.546Z,61.07
2023-05-07T23:21:53.324Z,60.83
2023-05-07T23:24:21.166Z,60.97
2023-05-07T23:26:48.880Z,61.09
2023-05-07T23:29:18.605Z,61.03
2023-05-07T23:31:46.382Z,61.08
2023-05-07T23:34:14.718Z,60.66
2023-05-07T23:36:42.583Z,60.39
2023-05-07T23:39:12.128Z,60.59
2023-05-07T23:41:39.993Z,60.75
2023-05-07T23:44:07.741Z,61.02
2023-05-07T23:46:35.565Z,61.08
2023-05-07T23:49:03.789Z,60.98
2023-05-07T23:51:31.987Z,60.98
2023-05-07T23:54:00.159Z,60.80
2023-05-07T23:56:29.227Z,60.92
2023-05-07T23:58:57.172Z,61.10
